sensor_id;sensor_type;location;lat;lon;timestamp;pressure;altitude;pressure_sealevel;temperature;humidity
47430;BME280;33181;49.246;7.372;2023-05-12T00:01:11;98589.63;;;13.76;90.43
47430;BME280;33181;49.246;7.372;2023-05-12T00:03:39;98585.34;;;13.75;90.53
47430;BME280;33181;49.246;7.372;2023-05-12T00:06:05;98582.53;;;13.77;90.43
47430;BME280;33181;49.246;7.372;2023-05-12T00:08:31;98582.69;;;13.75;90.64
47430;BME280;33181;49.246;7.372;2023-05-12T00:10:57;98583.66;;;13.74;90.36
47430;BME280;33181;49.246;7.372;2023-05-12T00:13:23;98577.72;;;13.72;90.14
47430;BME280;33181;49.246;7.372;2023-05-12T00:15:50;98581.31;;;13.71;89.84
47430;BME280;33181;49.246;7.372;2023-05-12T00:18:16;98580.94;;;13.66;89.61
47430;BME280;33181;49.246;7.372;2023-05-12T00:20:42;98579.41;;;13.63;89.50
47430;BME280;33181;49.246;7.372;2023-05-12T00:23:08;98579.19;;;13.57;89.23
47430;BME280;33181;49.246;7.372;2023-05-12T00:25:33;98576.97;;;13.52;89.06
47430;BME280;33181;49.246;7.372;2023-05-12T00:27:59;98571.44;;;13.45;89.02
47430;BME280;33181;49.246;7.372;2023-05-12T00:30:25;98567.16;;;13.44;89.19
47430;BME280;33181;49.246;7.372;2023-05-12T00:32:51;98575.53;;;13.40;88.86
47430;BME280;33181;49.246;7.372;2023-05-12T00:35:17;98565.97;;;13.29;88.94
47430;BME280;33181;49.246;7.372;2023-05-12T00:37:43;98570.84;;;13.24;88.98
47430;BME280;33181;49.246;7.372;2023-05-12T00:40:09;98562.94;;;13.14;89.27
47430;BME280;33181;49.246;7.372;2023-05-12T00:42:35;98565.16;;;13.19;89.49
47430;BME280;33181;49.246;7.372;2023-05-12T00:45:02;98559.88;;;13.19;89.42
47430;BME280;33181;49.246;7.372;2023-05-12T00:47:29;98561.44;;;13.12;89.54
47430;BME280;33181;49.246;7.372;2023-05-12T00:49:55;98560.75;;;13.10;89.83
47430;BME280;33181;49.246;7.372;2023-05-12T00:52:21;98553.00;;;13.08;90.01
47430;BME280;33181;49.246;7.372;2023-05-12T00:54:47;98548.84;;;13.06;90.31
47430;BME280;33181;49.246;7.372;2023-05-12T00:57:14;98551.06;;;13.01;91.14
47430;BME280;33181;49.246;7.372;2023-05-12T00:59:40;98548.00;;;12.95;91.33
47430;BME280;33181;49.246;7.372;2023-05-12T01:02:06;98545.66;;;13.02;91.51
47430;BME280;33181;49.246;7.372;2023-05-12T01:04:34;98546.84;;;13.08;91.88
47430;BME280;33181;49.246;7.372;2023-05-12T01:07:14;98540.34;;;13.12;92.05
47430;BME280;33181;49.246;7.372;2023-05-12T01:09:42;98545.88;;;13.18;92.34
47430;BME280;33181;49.246;7.372;2023-05-12T01:12:08;98547.22;;;13.22;92.69
47430;BME280;33181;49.246;7.372;2023-05-12T01:14:34;98552.25;;;13.26;92.59
47430;BME280;33181;49.246;7.372;2023-05-12T01:17:04;98549.84;;;13.32;92.47
47430;BME280;33181;49.246;7.372;2023-05-12T01:19:47;98546.22;;;13.33;92.52
47430;BME280;33181;49.246;7.372;2023-05-12T01:22:15;98537.19;;;13.36;92.53
47430;BME280;33181;49.246;7.372;2023-05-12T01:25:00;98546.63;;;13.38;92.89
47430;BME280;33181;49.246;7.372;2023-05-12T01:27:28;98542.06;;;13.40;93.27
47430;BME280;33181;49.246;7.372;2023-05-12T01:29:57;98541.88;;;13.42;93.73
47430;BME280;33181;49.246;7.372;2023-05-12T01:32:23;98534.78;;;13.42;93.64
47430;BME280;33181;49.246;7.372;2023-05-12T01:34:49;98534.50;;;13.45;93.94
47430;BME280;33181;49.246;7.372;2023-05-12T01:37:17;98538.94;;;13.45;93.86
47430;BME280;33181;49.246;7.372;2023-05-12T01:39:44;98541.88;;;13.42;93.71
47430;BME280;33181;49.246;7.372;2023-05-12T01:42:10;98538.41;;;13.41;93.61
47430;BME280;33181;49.246;7.372;2023-05-12T01:44:35;98542.06;;;13.40;93.64
47430;BME280;33181;49.246;7.372;2023-05-12T01:47:01;98533.72;;;13.35;93.62
47430;BME280;33181;49.246;7.372;2023-05-12T01:49:27;98542.22;;;13.29;93.58
47430;BME280;33181;49.246;7.372;2023-05-12T01:51:53;98533.34;;;13.20;93.97
47430;BME280;33181;49.246;7.372;2023-05-12T01:54:19;98539.19;;;13.24;94.34
47430;BME280;33181;49.246;7.372;2023-05-12T01:56:45;98542.69;;;13.25;94.65
47430;BME280;33181;49.246;7.372;2023-05-12T01:59:11;98540.97;;;13.23;95.01
47430;BME280;33181;49.246;7.372;2023-05-12T02:01:37;98542.78;;;13.23;95.21
47430;BME280;33181;49.246;7.372;2023-05-12T02:04:03;98544.47;;;13.24;95.43
47430;BME280;33181;49.246;7.372;2023-05-12T02:06:29;98537.41;;;13.25;95.52
47430;BME280;33181;49.246;7.372;2023-05-12T02:08:56;98544.34;;;13.26;95.66
47430;BME280;33181;49.246;7.372;2023-05-12T02:11:22;98539.75;;;13.28;95.90
47430;BME280;33181;49.246;7.372;2023-05-12T02:13:48;98540.94;;;13.33;96.17
47430;BME280;33181;49.246;7.372;2023-05-12T02:16:13;98543.28;;;13.36;96.30
47430;BME280;33181;49.246;7.372;2023-05-12T02:18:39;98533.19;;;13.32;95.87
47430;BME280;33181;49.246;7.372;2023-05-12T02:21:05;98533.03;;;13.33;95.97
47430;BME280;33181;49.246;7.372;2023-05-12T02:23:31;98537.06;;;13.37;96.08
47430;BME280;33181;49.246;7.372;2023-05-12T02:25:59;98535.09;;;13.39;95.82
47430;BME280;33181;49.246;7.372;2023-05-12T02:28:25;98538.59;;;13.40;95.58
47430;BME280;33181;49.246;7.372;2023-05-12T02:30:51;98533.97;;;13.42;95.51
47430;BME280;33181;49.246;7.372;2023-05-12T02:33:21;98531.50;;;13.40;95.38
47430;BME280;33181;49.246;7.372;2023-05-12T02:35:48;98534.13;;;13.40;95.31
47430;BME280;33181;49.246;7.372;2023-05-12T02:38:14;98528.03;;;13.40;94.98
47430;BME280;33181;49.246;7.372;2023-05-12T02:40:40;98539.25;;;13.42;94.75
47430;BME280;33181;49.246;7.372;2023-05-12T02:43:06;98529.69;;;13.41;94.68
47430;BME280;33181;49.246;7.372;2023-05-12T02:45:33;98533.16;;;13.41;95.08
47430;BME280;33181;49.246;7.372;2023-05-12T02:47:59;98532.31;;;13.41;95.00
47430;BME280;33181;49.246;7.372;2023-05-12T02:50:25;98530.50;;;13.41;95.10
47430;BME280;33181;49.246;7.372;2023-05-12T02:52:51;98533.16;;;13.41;95.04
47430;BME280;33181;49.246;7.372;2023-05-12T02:55:17;98534.78;;;13.42;95.03
47430;BME280;33181;49.246;7.372;2023-05-12T02:57:43;98531.34;;;13.42;94.79
47430;BME280;33181;49.246;7.372;2023-05-12T03:00:09;98534.13;;;13.40;94.67
47430;BME280;33181;49.246;7.372;2023-05-12T03:02:37;98534.13;;;13.40;94.48
47430;BME280;33181;49.246;7.372;2023-05-12T03:05:04;98526.88;;;13.42;94.26
47430;BME280;33181;49.246;7.372;2023-05-12T03:07:30;98530.50;;;13.41;94.35
47430;BME280;33181;49.246;7.372;2023-05-12T03:09:57;98531.34;;;13.42;93.98
47430;BME280;33181;49.246;7.372;2023-05-12T03:12:23;98533.16;;;13.41;93.74
47430;BME280;33181;49.246;7.372;2023-05-12T03:14:49;98536.47;;;13.43;93.57
47430;BME280;33181;49.246;7.372;2023-05-12T03:17:15;98525.00;;;13.35;93.45
47430;BME280;33181;49.246;7.372;2023-05-12T03:19:41;98531.38;;;13.32;93.08
47430;BME280;33181;49.246;7.372;2023-05-12T03:22:08;98530.31;;;13.25;93.46
47430;BME280;33181;49.246;7.372;2023-05-12T03:24:34;98524.31;;;13.23;93.65
47430;BME280;33181;49.246;7.372;2023-05-12T03:27:01;98531.97;;;13.26;94.40
47430;BME280;33181;49.246;7.372;2023-05-12T03:29:26;98524.06;;;13.26;94.57
47430;BME280;33181;49.246;7.372;2023-05-12T03:31:52;98527.50;;;13.27;94.29
47430;BME280;33181;49.246;7.372;2023-05-12T03:34:18;98527.78;;;13.23;94.04
47430;BME280;33181;49.246;7.372;2023-05-12T03:36:44;98529.19;;;13.28;94.25
47430;BME280;33181;49.246;7.372;2023-05-12T03:39:10;98523.75;;;13.29;94.45
47430;BME280;33181;49.246;7.372;2023-05-12T03:41:39;98520.59;;;13.16;94.12
47430;BME280;33181;49.246;7.372;2023-05-12T03:44:05;98519.78;;;13.15;94.09
47430;BME280;33181;49.246;7.372;2023-05-12T03:46:33;98523.81;;;13.10;93.76
47430;BME280;33181;49.246;7.372;2023-05-12T03:48:59;98517.44;;;13.12;94.07
47430;BME280;33181;49.246;7.372;2023-05-12T03:51:25;98517.97;;;13.16;94.09
47430;BME280;33181;49.246;7.372;2023-05-12T03:53:52;98516.16;;;13.16;94.51
47430;BME280;33181;49.246;7.372;2023-05-12T03:56:18;98513.97;;;13.12;94.34
47430;BME280;33181;49.246;7.372;2023-05-12T03:58:43;98517.56;;;13.11;94.13
47430;BME280;33181;49.246;7.372;2023-05-12T04:01:11;98518.09;;;13.14;94.92
47430;BME280;33181;49.246;7.372;2023-05-12T04:03:37;98516.31;;;13.15;95.14
47430;BME280;33181;49.246;7.372;2023-05-12T04:06:06;98513.97;;;13.12;95.00
47430;BME280;33181;49.246;7.372;2023-05-12T04:08:32;98514.69;;;13.04;95.02
47430;BME280;33181;49.246;7.372;2023-05-12T04:11:00;98514.97;;;13.01;95.23
47430;BME280;33181;49.246;7.372;2023-05-12T04:13:28;98510.69;;;13.00;95.63
47430;BME280;33181;49.246;7.372;2023-05-12T04:15:57;98515.50;;;13.05;95.91
47430;BME280;33181;49.246;7.372;2023-05-12T04:18:24;98513.84;;;13.04;95.86
47430;BME280;33181;49.246;7.372;2023-05-12T04:20:52;98519.72;;;12.97;96.35
47430;BME280;33181;49.246;7.372;2023-05-12T04:23:19;98509.75;;;12.91;96.56
47430;BME280;33181;49.246;7.372;2023-05-12T04:25:45;98518.09;;;12.87;96.60
47430;BME280;33181;49.246;7.372;2023-05-12T04:28:11;98521.25;;;12.90;96.80
47430;BME280;33181;49.246;7.372;2023-05-12T04:30:41;98512.91;;;12.95;96.77
47430;BME280;33181;49.246;7.372;2023-05-12T04:33:07;98511.38;;;13.02;97.13
47430;BME280;33181;49.246;7.372;2023-05-12T04:35:34;98511.63;;;13.09;97.25
47430;BME280;33181;49.246;7.372;2023-05-12T04:38:00;98508.25;;;13.16;97.40
47430;BME280;33181;49.246;7.372;2023-05-12T04:40:27;98512.13;;;13.22;97.39
47430;BME280;33181;49.246;7.372;2023-05-12T04:42:52;98515.44;;;13.24;97.24
47430;BME280;33181;49.246;7.372;2023-05-12T04:45:18;98517.78;;;13.27;97.12
47430;BME280;33181;49.246;7.372;2023-05-12T04:47:44;98520.44;;;13.27;96.81
47430;BME280;33181;49.246;7.372;2023-05-12T04:50:10;98520.84;;;13.32;96.49
47430;BME280;33181;49.246;7.372;2023-05-12T04:52:37;98525.81;;;13.35;96.63
47430;BME280;33181;49.246;7.372;2023-05-12T04:55:04;98525.81;;;13.35;96.38
47430;BME280;33181;49.246;7.372;2023-05-12T04:57:30;98533.44;;;13.38;96.36
47430;BME280;33181;49.246;7.372;2023-05-12T04:59:56;98537.44;;;13.42;95.82
47430;BME280;33181;49.246;7.372;2023-05-12T05:02:26;98531.50;;;13.40;95.94
47430;BME280;33181;49.246;7.372;2023-05-12T05:04:52;98536.78;;;13.40;95.60
47430;BME280;33181;49.246;7.372;2023-05-12T05:07:19;98536.25;;;13.37;95.42
47430;BME280;33181;49.246;7.372;2023-05-12T05:09:45;98536.59;;;13.42;95.57
47430;BME280;33181;49.246;7.372;2023-05-12T05:12:10;98545.81;;;13.38;95.19
47430;BME280;33181;49.246;7.372;2023-05-12T05:14:36;98544.00;;;13.38;95.26
47430;BME280;33181;49.246;7.372;2023-05-12T05:17:02;98545.63;;;13.39;94.86
47430;BME280;33181;49.246;7.372;2023-05-12T05:19:28;98543.00;;;13.39;94.35
47430;BME280;33181;49.246;7.372;2023-05-12T05:21:54;98542.94;;;13.31;94.76
47430;BME280;33181;49.246;7.372;2023-05-12T05:24:20;98547.09;;;13.34;94.61
47430;BME280;33181;49.246;7.372;2023-05-12T05:26:46;98545.50;;;13.41;94.39
47430;BME280;33181;49.246;7.372;2023-05-12T05:29:12;98553.97;;;13.44;94.37
47430;BME280;33181;49.246;7.372;2023-05-12T05:31:37;98554.38;;;13.50;94.40
47430;BME280;33181;49.246;7.372;2023-05-12T05:34:05;98551.03;;;13.48;93.21
47430;BME280;33181;49.246;7.372;2023-05-12T05:36:31;98552.69;;;13.49;93.79
47430;BME280;33181;49.246;7.372;2023-05-12T05:38:58;98555.47;;;13.47;93.59
47430;BME280;33181;49.246;7.372;2023-05-12T05:41:24;98554.25;;;13.41;93.70
47430;BME280;33181;49.246;7.372;2023-05-12T05:43:50;98560.09;;;13.35;94.09
47430;BME280;33181;49.246;7.372;2023-05-12T05:46:15;98555.28;;;13.31;94.08
47430;BME280;33181;49.246;7.372;2023-05-12T05:48:41;98560.69;;;13.19;94.84
47430;BME280;33181;49.246;7.372;2023-05-12T05:51:07;98559.47;;;13.14;95.16
47430;BME280;33181;49.246;7.372;2023-05-12T05:53:36;98566.38;;;12.87;96.82
47430;BME280;33181;49.246;7.372;2023-05-12T05:56:02;98558.75;;;12.84;97.16
47430;BME280;33181;49.246;7.372;2023-05-12T05:58:28;98561.88;;;12.97;97.28
47430;BME280;33181;49.246;7.372;2023-05-12T06:00:53;98563.53;;;13.08;97.79
47430;BME280;33181;49.246;7.372;2023-05-12T06:03:19;98566.13;;;13.18;96.36
47430;BME280;33181;49.246;7.372;2023-05-12T06:05:45;98565.94;;;12.92;97.82
47430;BME280;33181;49.246;7.372;2023-05-12T06:08:11;98574.97;;;12.89;97.64
47430;BME280;33181;49.246;7.372;2023-05-12T06:10:38;98575.81;;;12.90;97.45
47430;BME280;33181;49.246;7.372;2023-05-12T06:13:08;98578.69;;;12.96;97.66
47430;BME280;33181;49.246;7.372;2023-05-12T06:15:34;98583.78;;;13.08;96.75
47430;BME280;33181;49.246;7.372;2023-05-12T06:18:00;98580.47;;;13.06;96.92
47430;BME280;33181;49.246;7.372;2023-05-12T06:20:26;98583.53;;;13.01;97.44
47430;BME280;33181;49.246;7.372;2023-05-12T06:22:52;98585.53;;;12.89;97.81
47430;BME280;33181;49.246;7.372;2023-05-12T06:25:22;98581.47;;;12.85;97.82
47430;BME280;33181;49.246;7.372;2023-05-12T06:27:50;98580.13;;;12.81;97.46
47430;BME280;33181;49.246;7.372;2023-05-12T06:30:17;98589.28;;;12.77;98.49
47430;BME280;33181;49.246;7.372;2023-05-12T06:32:43;98595.50;;;12.76;99.25
47430;BME280;33181;49.246;7.372;2023-05-12T06:35:09;98593.00;;;12.84;98.49
47430;BME280;33181;49.246;7.372;2023-05-12T06:37:35;98591.47;;;12.82;98.46
47430;BME280;33181;49.246;7.372;2023-05-12T06:40:01;98587.47;;;12.78;98.25
47430;BME280;33181;49.246;7.372;2023-05-12T06:42:28;98591.09;;;12.47;98.91
47430;BME280;33181;49.246;7.372;2023-05-12T06:44:53;98592.63;;;12.69;98.77
47430;BME280;33181;49.246;7.372;2023-05-12T06:47:19;98589.56;;;12.74;98.68
47430;BME280;33181;49.246;7.372;2023-05-12T06:49:45;98593.84;;;12.85;97.91
47430;BME280;33181;49.246;7.372;2023-05-12T06:52:14;98595.09;;;12.90;96.19
47430;BME280;33181;49.246;7.372;2023-05-12T06:54:39;98599.38;;;12.91;95.27
47430;BME280;33181;49.246;7.372;2023-05-12T06:57:05;98602.97;;;13.00;95.01
47430;BME280;33181;49.246;7.372;2023-05-12T06:59:31;98605.16;;;13.05;93.72
47430;BME280;33181;49.246;7.372;2023-05-12T07:01:57;98599.00;;;13.23;94.41
47430;BME280;33181;49.246;7.372;2023-05-12T07:04:23;98597.50;;;13.31;93.56
47430;BME280;33181;49.246;7.372;2023-05-12T07:06:51;98609.25;;;13.36;91.79
47430;BME280;33181;49.246;7.372;2023-05-12T07:09:19;98601.16;;;13.48;91.83
47430;BME280;33181;49.246;7.372;2023-05-12T07:11:45;98605.44;;;13.49;92.55
47430;BME280;33181;49.246;7.372;2023-05-12T07:14:11;98611.13;;;13.54;91.73
47430;BME280;33181;49.246;7.372;2023-05-12T07:16:37;98611.03;;;13.73;91.71
47430;BME280;33181;49.246;7.372;2023-05-12T07:19:03;98611.66;;;13.57;89.04
47430;BME280;33181;49.246;7.372;2023-05-12T07:21:31;98611.13;;;13.54;89.57
47430;BME280;33181;49.246;7.372;2023-05-12T07:23:57;98608.59;;;13.62;89.93
47430;BME280;33181;49.246;7.372;2023-05-12T07:26:22;98610.22;;;13.73;90.21
47430;BME280;33181;49.246;7.372;2023-05-12T07:28:53;98606.44;;;13.75;88.71
47430;BME280;33181;49.246;7.372;2023-05-12T07:31:19;98605.88;;;13.81;89.33
47430;BME280;33181;49.246;7.372;2023-05-12T07:33:44;98606.22;;;13.86;88.17
47430;BME280;33181;49.246;7.372;2023-05-12T07:36:10;98615.53;;;13.90;87.93
47430;BME280;33181;49.246;7.372;2023-05-12T07:38:36;98613.19;;;13.87;88.32
47430;BME280;33181;49.246;7.372;2023-05-12T07:41:02;98608.22;;;13.84;88.43
47430;BME280;33181;49.246;7.372;2023-05-12T07:43:28;98615.13;;;13.85;86.28
47430;BME280;33181;49.246;7.372;2023-05-12T07:45:54;98615.44;;;13.82;86.61
47430;BME280;33181;49.246;7.372;2023-05-12T07:48:21;98616.50;;;13.89;87.26
47430;BME280;33181;49.246;7.372;2023-05-12T07:50:47;98618.59;;;13.86;87.15
47430;BME280;33181;49.246;7.372;2023-05-12T07:53:12;98616.81;;;14.04;87.24
47430;BME280;33181;49.246;7.372;2023-05-12T07:55:38;98613.88;;;14.07;86.43
47430;BME280;33181;49.246;7.372;2023-05-12T07:58:04;98615.38;;;13.92;87.45
47430;BME280;33181;49.246;7.372;2023-05-12T08:00:30;98617.09;;;13.83;89.80
47430;BME280;33181;49.246;7.372;2023-05-12T08:02:55;98617.97;;;13.74;88.52
47430;BME280;33181;49.246;7.372;2023-05-12T08:05:22;98611.56;;;13.77;88.43
47430;BME280;33181;49.246;7.372;2023-05-12T08:07:48;98622.59;;;13.90;86.31
47430;BME280;33181;49.246;7.372;2023-05-12T08:10:14;98621.41;;;14.02;86.19
47430;BME280;33181;49.246;7.372;2023-05-12T08:12:41;98621.78;;;13.89;85.50
47430;BME280;33181;49.246;7.372;2023-05-12T08:15:08;98621.19;;;13.96;86.68
47430;BME280;33181;49.246;7.372;2023-05-12T08:17:34;98622.56;;;14.00;85.88
47430;BME280;33181;49.246;7.372;2023-05-12T08:20:01;98618.41;;;13.97;85.34
47430;BME280;33181;49.246;7.372;2023-05-12T08:22:29;98615.78;;;13.97;84.76
47430;BME280;33181;49.246;7.372;2023-05-12T08:24:55;98623.75;;;14.05;85.31
47430;BME280;33181;49.246;7.372;2023-05-12T08:27:21;98615.69;;;14.25;84.44
47430;BME280;33181;49.246;7.372;2023-05-12T08:29:47;98617.09;;;14.29;82.66
47430;BME280;33181;49.246;7.372;2023-05-12T08:32:13;98614.06;;;14.42;83.17
47430;BME280;33181;49.246;7.372;2023-05-12T08:34:39;98621.13;;;14.51;81.94
47430;BME280;33181;49.246;7.372;2023-05-12T08:37:05;98612.06;;;14.44;80.12
47430;BME280;33181;49.246;7.372;2023-05-12T08:39:31;98622.63;;;14.53;79.45
47430;BME280;33181;49.246;7.372;2023-05-12T08:44:36;98628.56;;;14.55;79.83
47430;BME280;33181;49.246;7.372;2023-05-12T08:47:04;98629.56;;;14.54;79.61
47430;BME280;33181;49.246;7.372;2023-05-12T08:49:31;98627.84;;;14.63;81.30
47430;BME280;33181;49.246;7.372;2023-05-12T08:52:02;98623.41;;;14.90;81.17
47430;BME280;33181;49.246;7.372;2023-05-12T08:54:29;98631.03;;;15.19;79.19
47430;BME280;33181;49.246;7.372;2023-05-12T08:56:56;98625.91;;;15.17;78.90
47430;BME280;33181;49.246;7.372;2023-05-12T08:59:23;98626.25;;;15.22;77.94
47430;BME280;33181;49.246;7.372;2023-05-12T09:01:51;98620.53;;;15.35;78.87
47430;BME280;33181;49.246;7.372;2023-05-12T09:04:17;98629.19;;;15.19;76.56
47430;BME280;33181;49.246;7.372;2023-05-12T09:06:43;98623.06;;;15.11;76.73
47430;BME280;33181;49.246;7.372;2023-05-12T09:09:12;98629.16;;;14.85;79.27
47430;BME280;33181;49.246;7.372;2023-05-12T09:11:39;98629.00;;;14.87;78.56
47430;BME280;33181;49.246;7.372;2023-05-12T09:14:17;98627.56;;;14.74;78.77
47430;BME280;33181;49.246;7.372;2023-05-12T09:16:46;98632.03;;;14.38;79.38
47430;BME280;33181;49.246;7.372;2023-05-12T09:19:20;98632.88;;;14.38;79.66
47430;BME280;33181;49.246;7.372;2023-05-12T09:21:47;98624.25;;;14.36;80.30
47430;BME280;33181;49.246;7.372;2023-05-12T09:24:13;98628.19;;;14.32;80.90
47430;BME280;33181;49.246;7.372;2023-05-12T09:26:51;98627.88;;;14.35;81.88
47430;BME280;33181;49.246;7.372;2023-05-12T09:29:19;98635.63;;;14.37;80.71
47430;BME280;33181;49.246;7.372;2023-05-12T09:31:49;98630.94;;;14.31;80.06
47430;BME280;33181;49.246;7.372;2023-05-12T09:34:16;98626.59;;;14.40;79.41
47430;BME280;33181;49.246;7.372;2023-05-12T09:36:43;98626.59;;;14.40;80.15
47430;BME280;33181;49.246;7.372;2023-05-12T09:39:11;98624.13;;;14.56;79.31
47430;BME280;33181;49.246;7.372;2023-05-12T09:41:41;98623.81;;;14.77;79.63
47430;BME280;33181;49.246;7.372;2023-05-12T09:44:09;98622.53;;;15.07;77.41
47430;BME280;33181;49.246;7.372;2023-05-12T09:46:36;98621.69;;;15.06;75.03
47430;BME280;33181;49.246;7.372;2023-05-12T09:49:02;98623.97;;;15.01;75.88
47430;BME280;33181;49.246;7.372;2023-05-12T09:51:28;98617.06;;;15.35;76.08
47430;BME280;33181;49.246;7.372;2023-05-12T09:53:56;98616.66;;;15.56;75.17
47430;BME280;33181;49.246;7.372;2023-05-12T09:56:28;98615.22;;;15.61;74.36
47430;BME280;33181;49.246;7.372;2023-05-12T09:58:56;98614.72;;;15.66;74.40
47430;BME280;33181;49.246;7.372;2023-05-12T10:01:24;98611.34;;;15.82;74.31
47430;BME280;33181;49.246;7.372;2023-05-12T10:03:52;98611.69;;;15.95;71.30
47430;BME280;33181;49.246;7.372;2023-05-12T10:06:29;98621.50;;;16.11;71.79
47430;BME280;33181;49.246;7.372;2023-05-12T10:09:22;98612.09;;;16.16;71.19
47430;BME280;33181;49.246;7.372;2023-05-12T10:11:50;98614.16;;;16.55;71.61
47430;BME280;33181;49.246;7.372;2023-05-12T10:14:17;98614.47;;;16.77;71.22
47430;BME280;33181;49.246;7.372;2023-05-12T10:16:45;98608.66;;;16.98;70.57
47430;BME280;33181;49.246;7.372;2023-05-12T10:19:12;98609.97;;;17.10;69.74
47430;BME280;33181;49.246;7.372;2023-05-12T10:21:39;98604.00;;;17.08;69.39
47430;BME280;33181;49.246;7.372;2023-05-12T10:24:07;98610.63;;;17.20;68.63
47430;BME280;33181;49.246;7.372;2023-05-12T10:26:33;98608.28;;;17.25;68.44
47430;BME280;33181;49.246;7.372;2023-05-12T10:29:00;98613.16;;;16.97;68.66
47430;BME280;33181;49.246;7.372;2023-05-12T10:31:26;98612.13;;;16.57;69.10
47430;BME280;33181;49.246;7.372;2023-05-12T10:33:57;98612.97;;;16.50;69.63
47430;BME280;33181;49.246;7.372;2023-05-12T10:36:24;98612.81;;;16.59;70.50
47430;BME280;33181;49.246;7.372;2023-05-12T10:38:50;98618.25;;;16.41;70.47
47430;BME280;33181;49.246;7.372;2023-05-12T10:41:16;98613.78;;;16.42;70.36
47430;BME280;33181;49.246;7.372;2023-05-12T10:43:47;98608.31;;;16.27;70.98
47430;BME280;33181;49.246;7.372;2023-05-12T10:46:19;98620.03;;;16.16;71.12
47430;BME280;33181;49.246;7.372;2023-05-12T10:51:44;98613.34;;;15.80;74.04
47430;BME280;33181;49.246;7.372;2023-05-12T10:54:23;98615.75;;;15.73;75.18
47430;BME280;33181;49.246;7.372;2023-05-12T10:56:49;98615.69;;;15.57;76.32
47430;BME280;33181;49.246;7.372;2023-05-12T10:59:20;98619.13;;;15.49;76.90
47430;BME280;33181;49.246;7.372;2023-05-12T11:02:12;98621.25;;;15.19;78.55
47430;BME280;33181;49.246;7.372;2023-05-12T11:04:41;98618.41;;;15.13;78.43
47430;BME280;33181;49.246;7.372;2023-05-12T11:07:11;98620.81;;;14.98;79.52
47430;BME280;33181;49.246;7.372;2023-05-12T11:09:43;98623.03;;;14.84;80.45
47430;BME280;33181;49.246;7.372;2023-05-12T11:12:10;98626.88;;;14.90;83.05
47430;BME280;33181;49.246;7.372;2023-05-12T11:14:38;98626.91;;;14.72;82.80
47430;BME280;33181;49.246;7.372;2023-05-12T11:17:05;98626.00;;;14.64;85.55
47430;BME280;33181;49.246;7.372;2023-05-12T11:19:32;98629.09;;;14.59;84.34
47430;BME280;33181;49.246;7.372;2023-05-12T11:22:09;98628.56;;;14.37;85.67
47430;BME280;33181;49.246;7.372;2023-05-12T11:24:38;98627.88;;;14.35;87.46
47430;BME280;33181;49.246;7.372;2023-05-12T11:27:06;98628.94;;;14.43;86.21
47430;BME280;33181;49.246;7.372;2023-05-12T11:29:36;98633.22;;;14.44;86.25
47430;BME280;33181;49.246;7.372;2023-05-12T11:32:04;98625.41;;;14.52;86.54
47430;BME280;33181;49.246;7.372;2023-05-12T11:34:30;98626.00;;;14.64;85.76
47430;BME280;33181;49.246;7.372;2023-05-12T11:36:56;98636.84;;;14.78;86.08
47430;BME280;33181;49.246;7.372;2023-05-12T11:39:24;98624.09;;;15.18;86.03
47430;BME280;33181;49.246;7.372;2023-05-12T11:41:51;98623.28;;;15.51;83.38
47430;BME280;33181;49.246;7.372;2023-05-12T11:44:22;98623.59;;;15.83;78.67
47430;BME280;33181;49.246;7.372;2023-05-12T11:49:25;98619.31;;;16.81;73.03
47430;BME280;33181;49.246;7.372;2023-05-12T11:51:54;98621.09;;;17.05;71.83
47430;BME280;33181;49.246;7.372;2023-05-12T11:54:21;98628.03;;;16.57;71.07
47430;BME280;33181;49.246;7.372;2023-05-12T11:56:52;98622.91;;;16.64;72.04
47430;BME280;33181;49.246;7.372;2023-05-12T11:59:34;98628.44;;;16.87;70.39
47430;BME280;33181;49.246;7.372;2023-05-12T12:02:03;98630.06;;;16.88;70.45
47430;BME280;33181;49.246;7.372;2023-05-12T12:04:39;98628.75;;;16.84;70.80
47430;BME280;33181;49.246;7.372;2023-05-12T12:07:07;98634.72;;;16.78;72.34
47430;BME280;33181;49.246;7.372;2023-05-12T12:09:37;98636.34;;;16.62;71.14
47430;BME280;33181;49.246;7.372;2023-05-12T12:12:07;98634.34;;;16.40;70.54
47430;BME280;33181;49.246;7.372;2023-05-12T12:14:36;98644.53;;;16.10;71.45
47430;BME280;33181;49.246;7.372;2023-05-12T12:17:06;98641.69;;;15.95;71.16
47430;BME280;33181;49.246;7.372;2023-05-12T12:19:32;98646.22;;;15.69;71.63
47430;BME280;33181;49.246;7.372;2023-05-12T12:21:57;98643.75;;;15.67;73.57
47430;BME280;33181;49.246;7.372;2023-05-12T12:24:24;98650.41;;;15.53;73.96
47430;BME280;33181;49.246;7.372;2023-05-12T12:26:50;98648.69;;;15.36;75.22
47430;BME280;33181;49.246;7.372;2023-05-12T12:29:17;98642.56;;;15.36;75.48
47430;BME280;33181;49.246;7.372;2023-05-12T12:31:43;98639.19;;;15.60;76.16
47430;BME280;33181;49.246;7.372;2023-05-12T12:34:09;98641.31;;;15.56;74.55
47430;BME280;33181;49.246;7.372;2023-05-12T12:36:35;98640.00;;;15.60;75.53
47430;BME280;33181;49.246;7.372;2023-05-12T12:39:02;98648.22;;;15.67;75.00
47430;BME280;33181;49.246;7.372;2023-05-12T12:41:28;98640.28;;;15.67;75.52
47430;BME280;33181;49.246;7.372;2023-05-12T12:43:54;98639.09;;;15.69;75.51
47430;BME280;33181;49.246;7.372;2023-05-12T12:46:19;98645.00;;;15.63;76.22
47430;BME280;33181;49.246;7.372;2023-05-12T12:48:45;98646.81;;;15.63;76.81
47430;BME280;33181;49.246;7.372;2023-05-12T12:51:11;98644.66;;;15.58;76.98
47430;BME280;33181;49.246;7.372;2023-05-12T12:53:37;98644.34;;;15.61;75.34
47430;BME280;33181;49.246;7.372;2023-05-12T12:56:04;98647.72;;;15.71;74.77
47430;BME280;33181;49.246;7.372;2023-05-12T12:58:29;98651.25;;;15.88;73.88
47430;BME280;33181;49.246;7.372;2023-05-12T13:00:55;98645.94;;;15.80;74.77
47430;BME280;33181;49.246;7.372;2023-05-12T13:03:22;98653.88;;;15.80;75.82
47430;BME280;33181;49.246;7.372;2023-05-12T13:05:49;98656.22;;;15.57;75.97
47430;BME280;33181;49.246;7.372;2023-05-12T13:08:15;98666.81;;;15.57;76.67